Time;durP1;ratioP1;P1;durP2;ratioP2;P2;SDS_P1;SDS_P2;PMS_P1;PMS_P2;Temp;Humidity;BMP_temperature;BMP_pressure;BME280_temperature;BME280_humidity;BME280_pressure;Samples;Min_cycle;Max_cycle;Signal;HPM_P1;HPM_P2
2021/05/17 00:02:08;;;;;;;2.17;1.17;;;;;;;12.37;42.66;99722.47;3531172;40;20070;-73
2021/05/17 00:04:37;;;;;;;2.50;1.48;;;;;;;12.38;42.64;99729.66;3537438;40;20059;-73
2021/05/17 00:07:07;;;;;;;2.33;1.25;;;;;;;12.39;42.62;99730.53;3537196;40;20141;-72
2021/05/17 00:09:35;;;;;;;2.08;1.30;;;;;;;12.36;42.57;99723.50;3526617;40;20086;-72
2021/05/17 00:12:05;;;;;;;1.98;1.15;;;;;;;12.38;42.72;99724.19;3526529;40;20070;-73
2021/05/17 00:14:34;;;;;;;2.08;1.15;;;;;;;12.38;42.64;99731.56;3523672;40;20062;-73
2021/05/17 00:17:03;;;;;;;1.67;1.27;;;;;;;12.38;42.90;99726.06;3528653;40;20054;-73
2021/05/17 00:19:33;;;;;;;2.13;1.30;;;;;;;12.38;42.69;99729.66;3538764;40;20470;-72
2021/05/17 00:22:01;;;;;;;2.40;1.25;;;;;;;12.38;42.75;99731.56;3538041;40;20132;-72
2021/05/17 00:24:37;;;;;;;2.97;1.38;;;;;;;12.38;42.62;99735.16;3532197;40;20610;-72
2021/05/17 00:27:05;;;;;;;2.55;1.17;;;;;;;12.39;42.80;99731.38;3529427;40;20401;-73
2021/05/17 00:29:33;;;;;;;1.60;1.17;;;;;;;12.39;43.00;99733.28;3538624;40;20304;-73
2021/05/17 00:32:01;;;;;;;2.60;1.50;;;;;;;12.39;42.79;99733.28;3537366;40;20051;-73
2021/05/17 00:34:31;;;;;;;2.15;1.40;;;;;;;12.41;42.71;99739.44;3538553;40;20090;-73
2021/05/17 00:36:59;;;;;;;2.20;1.20;;;;;;;12.40;42.56;99735.84;3538215;40;20053;-73
2021/05/17 00:39:27;;;;;;;1.27;1.00;;;;;;;12.41;42.63;99734.81;3537471;40;20092;-73
2021/05/17 00:41:56;;;;;;;2.15;1.20;;;;;;;12.41;42.87;99740.31;3546307;40;20062;-72
2021/05/17 00:44:25;;;;;;;2.45;1.10;;;;;;;12.42;42.63;99741.16;3537907;40;20042;-73
2021/05/17 00:46:53;;;;;;;2.28;1.10;;;;;;;12.43;42.72;99734.63;3538686;40;20059;-72
2021/05/17 00:49:23;;;;;;;2.00;1.00;;;;;;;12.44;42.87;99739.09;3535781;40;20039;-72
2021/05/17 00:51:52;;;;;;;3.05;1.00;;;;;;;12.46;42.82;99736.19;3519286;40;20129;-73
2021/05/17 00:54:20;;;;;;;2.45;1.10;;;;;;;12.43;42.87;99732.75;3529985;40;20065;-72
2021/05/17 00:56:48;;;;;;;2.50;1.20;;;;;;;12.45;42.74;99735.31;3537268;40;20066;-72
2021/05/17 00:59:17;;;;;;;1.77;1.02;;;;;;;12.45;42.65;99739.94;3538499;40;20148;-72
2021/05/17 01:01:45;;;;;;;1.92;1.20;;;;;;;12.45;42.97;99732.56;3536045;40;20301;-72
2021/05/17 01:04:16;;;;;;;2.08;0.93;;;;;;;12.46;42.85;99736.19;3537541;40;20099;-72
2021/05/17 01:06:53;;;;;;;3.40;1.20;;;;;;;12.48;43.32;99745.94;3529353;40;20054;-72
2021/05/17 01:09:26;;;;;;;2.70;1.10;;;;;;;12.45;43.07;99735.31;3529271;40;20140;-72
2021/05/17 01:11:58;;;;;;;1.88;0.90;;;;;;;12.48;43.14;99734.13;3537431;40;20077;-72
2021/05/17 01:14:27;;;;;;;2.15;0.90;;;;;;;12.43;43.01;99735.47;3537518;40;20070;-72
2021/05/17 01:17:05;;;;;;;1.15;0.88;;;;;;;12.46;43.22;99744.41;3536524;40;20381;-72
2021/05/17 01:19:37;;;;;;;1.98;1.00;;;;;;;12.45;43.32;99743.53;3535607;40;20347;-72
2021/05/17 01:22:10;;;;;;;2.25;1.05;;;;;;;12.44;43.26;99747.31;3538178;40;20083;-72
2021/05/17 01:24:41;;;;;;;1.70;1.08;;;;;;;12.45;43.05;99742.69;3536841;40;20086;-72
2021/05/17 01:27:10;;;;;;;3.03;1.33;;;;;;;12.44;43.26;99750.06;3538249;40;20145;-72
2021/05/17 01:29:39;;;;;;;2.17;1.27;;;;;;;12.43;43.03;99743.72;3528860;40;20050;-72
2021/05/17 01:32:09;;;;;;;1.83;1.15;;;;;;;12.43;43.38;99744.75;3538328;40;20058;-72
2021/05/17 01:34:37;;;;;;;2.20;1.20;;;;;;;12.42;43.32;99738.41;3538181;40;20054;-72
2021/05/17 01:37:07;;;;;;;1.52;1.00;;;;;;;12.43;43.45;99736.53;3538415;40;20055;-72
2021/05/17 01:39:36;;;;;;;2.58;1.35;;;;;;;12.42;43.81;99741.16;3543850;40;20110;-72
2021/05/17 01:42:08;;;;;;;3.53;1.48;;;;;;;12.42;43.68;99732.94;3529028;40;20058;-72
2021/05/17 01:44:38;;;;;;;2.13;1.00;;;;;;;12.41;44.06;99742.19;3538032;40;20062;-72
2021/05/17 01:47:06;;;;;;;2.47;1.00;;;;;;;12.40;43.83;99738.59;3528879;40;20062;-72
2021/05/17 01:49:38;;;;;;;2.90;1.02;;;;;;;12.41;44.43;99737.56;3528895;40;20408;-72
2021/05/17 01:52:07;;;;;;;1.60;1.00;;;;;;;12.38;43.68;99739.78;3537691;40;20361;-72
2021/05/17 01:54:42;;;;;;;1.95;0.80;;;;;;;12.41;44.35;99739.44;3528730;40;20053;-72
2021/05/17 01:57:11;;;;;;;1.15;0.80;;;;;;;12.39;44.26;99739.63;3528879;40;20123;-72
2021/05/17 01:59:40;;;;;;;1.08;0.52;;;;;;;12.38;43.84;99739.78;3537828;40;20055;-72
2021/05/17 02:02:08;;;;;;;1.35;0.77;;;;;;;12.38;43.94;99742.53;3535470;40;20083;-72
2021/05/17 02:04:37;;;;;;;1.42;0.80;;;;;;;12.38;44.01;99740.63;3528125;40;20059;-72
2021/05/17 02:07:05;;;;;;;1.85;1.00;;;;;;;12.38;44.07;99739.78;3535671;40;20082;-72
2021/05/17 02:09:37;;;;;;;1.30;0.63;;;;;;;12.39;44.03;99736.88;3527400;40;20050;-72
2021/05/17 02:12:08;;;;;;;2.22;0.88;;;;;;;12.36;43.96;99742.69;3534273;40;20136;-72
2021/05/17 02:14:53;;;;;;;1.55;0.80;;;;;;;12.37;44.38;99733.44;3528260;40;20051;-72
2021/05/17 02:17:23;;;;;;;1.27;0.70;;;;;;;12.38;44.21;99735.16;3536903;40;20055;-72
2021/05/17 02:19:53;;;;;;;1.48;0.70;;;;;;;12.37;43.95;99735.31;3537692;40;20055;-72
2021/05/17 02:22:23;;;;;;;1.33;0.70;;;;;;;12.39;44.33;99741.50;3528761;40;20062;-72
2021/05/17 02:25:18;;;;;;;0.90;0.70;;;;;;;12.35;43.97;99742.84;3537166;40;20076;-72
2021/05/17 02:27:47;;;;;;;1.30;0.80;;;;;;;12.35;44.32;99748.34;3528555;40;20082;-72
2021/05/17 02:30:17;;;;;;;2.17;0.85;;;;;;;12.38;44.19;99748.00;3537520;40;20066;-72
2021/05/17 02:32:45;;;;;;;1.48;0.80;;;;;;;12.35;44.45;99751.06;3528533;40;20059;-72
2021/05/17 02:35:20;;;;;;;2.60;0.80;;;;;;;12.36;44.09;99744.56;3536578;40;20062;-72
2021/05/17 02:37:51;;;;;;;1.30;0.70;;;;;;;12.36;44.49;99750.91;3537407;40;20043;-72
2021/05/17 02:40:21;;;;;;;1.33;0.80;;;;;;;12.37;44.29;99751.78;3524763;40;20154;-72
2021/05/17 02:42:50;;;;;;;1.40;0.80;;;;;;;12.37;44.27;99751.78;3525094;40;20113;-72
2021/05/17 02:45:44;;;;;;;;;;;;;;;12.08;44.79;99749.53;3517210;40;20457;-73
2021/05/17 02:48:15;;;;;;;1.30;0.68;;;;;;;12.31;44.40;99753.31;3516808;40;20293;-72
2021/05/17 02:50:45;;;;;;;1.73;0.80;;;;;;;12.35;44.37;99753.81;3516025;40;20063;-72
2021/05/17 02:53:26;;;;;;;1.42;0.70;;;;;;;12.37;44.97;99755.38;3516016;40;20056;-72
2021/05/17 02:55:56;;;;;;;1.17;0.85;;;;;;;12.34;44.43;99754.88;3516202;40;20698;-72
2021/05/17 02:58:31;;;;;;;1.45;0.80;;;;;;;12.36;44.71;99756.41;3522540;40;20062;-72
2021/05/17 03:01:07;;;;;;;1.13;0.90;;;;;;;12.36;44.90;99752.78;3515723;40;20437;-73
2021/05/17 03:03:43;;;;;;;1.13;0.80;;;;;;;12.34;44.58;99755.72;3510274;40;20052;-72
2021/05/17 03:06:18;;;;;;;2.35;0.90;;;;;;;12.34;44.57;99753.00;3507995;40;20060;-72
2021/05/17 03:08:55;;;;;;;2.60;1.13;;;;;;;12.35;44.86;99745.59;3521585;40;20064;-72
2021/05/17 03:11:28;;;;;;;2.45;1.00;;;;;;;12.33;44.59;99759.50;3507918;40;20078;-72
2021/05/17 03:13:58;;;;;;;1.65;0.90;;;;;;;12.34;44.36;99755.72;3520614;40;20091;-72
2021/05/17 03:16:28;;;;;;;1.60;0.90;;;;;;;12.35;44.69;99756.56;3515909;40;20051;-73
2021/05/17 03:18:58;;;;;;;3.47;1.02;;;;;;;12.34;44.38;99760.34;3520787;40;20091;-72
2021/05/17 03:21:28;;;;;;;1.70;0.88;;;;;;;12.34;44.83;99763.97;3515598;40;20059;-72
2021/05/17 03:23:58;;;;;;;1.75;0.93;;;;;;;12.34;44.42;99765.84;3521097;40;20054;-73
2021/05/17 03:26:27;;;;;;;2.10;1.00;;;;;;;12.34;44.76;99763.97;3536175;40;20041;-73
2021/05/17 03:28:55;;;;;;;2.15;0.90;;;;;;;12.33;44.45;99764.13;3536745;40;20061;-72
2021/05/17 03:31:22;;;;;;;1.58;0.70;;;;;;;12.33;44.73;99758.63;3537247;40;20054;-72
2021/05/17 03:33:51;;;;;;;0.98;0.75;;;;;;;12.34;44.38;99768.59;3536562;40;20134;-72
2021/05/17 03:36:19;;;;;;;1.42;0.70;;;;;;;12.32;44.46;99766.00;3537018;40;20031;-72
2021/05/17 03:38:46;;;;;;;1.17;0.70;;;;;;;12.32;44.54;99766.00;3537317;40;20054;-72
2021/05/17 03:41:14;;;;;;;2.58;1.65;;;;;;;12.33;44.37;99764.13;3535977;40;20395;-72
2021/05/17 03:43:41;;;;;;;1.15;0.70;;;;;;;12.33;44.86;99764.13;3537153;40;20084;-73
2021/05/17 03:46:09;;;;;;;1.92;0.65;;;;;;;12.33;44.62;99764.97;3536291;40;20129;-72
2021/05/17 03:48:41;;;;;;;1.35;0.80;;;;;;;12.33;44.65;99764.13;3528913;40;20054;-72
2021/05/17 03:51:09;;;;;;;1.00;0.63;;;;;;;12.35;44.49;99764.78;3527533;40;20173;-72
2021/05/17 03:53:37;;;;;;;1.25;0.70;;;;;;;12.33;44.50;99773.22;3533737;40;20066;-72
2021/05/17 03:56:06;;;;;;;0.90;0.70;;;;;;;12.34;44.74;99771.31;3537425;40;20051;-72
2021/05/17 03:58:34;;;;;;;1.92;0.77;;;;;;;12.34;44.67;99769.44;3528782;40;20111;-72
2021/05/17 04:01:02;;;;;;;1.52;0.90;;;;;;;12.34;44.66;99768.59;3541067;40;20095;-72
2021/05/17 04:03:33;;;;;;;1.77;0.70;;;;;;;12.34;44.72;99769.44;3540227;40;20066;-72
2021/05/17 04:06:11;;;;;;;1.70;0.73;;;;;;;12.35;44.70;99770.28;3537320;40;20055;-72
2021/05/17 04:14:10;;;;;;;1.75;0.90;;;;;;;12.33;45.12;99772.34;3537209;40;20061;-72
2021/05/17 04:16:52;;;;;;;2.00;0.93;;;;;;;12.32;44.91;99779.72;3527913;40;20072;-72
2021/05/17 04:19:40;;;;;;;1.15;0.75;;;;;;;12.34;44.97;99776.81;3530145;40;20427;-72
2021/05/17 04:22:27;;;;;;;2.33;0.80;;;;;;;12.34;44.87;99777.69;3529875;40;20412;-72
2021/05/17 04:25:04;;;;;;;1.65;0.80;;;;;;;12.37;44.96;99781.94;3533637;40;20086;-72
2021/05/17 04:27:32;;;;;;;1.25;0.80;;;;;;;12.37;45.00;99785.53;3536778;40;20058;-72
2021/05/17 04:30:00;;;;;;;1.50;0.82;;;;;;;12.37;45.09;99788.28;3525143;40;20319;-72
2021/05/17 04:32:28;;;;;;;2.25;0.80;;;;;;;12.39;44.77;99788.13;3536659;40;20302;-72
2021/05/17 04:34:55;;;;;;;0.95;0.70;;;;;;;12.39;44.83;99788.97;3537129;40;20413;-72
2021/05/17 04:37:24;;;;;;;1.42;0.70;;;;;;;12.40;44.84;99787.97;3528023;40;20042;-72
2021/05/17 04:39:51;;;;;;;1.30;0.90;;;;;;;12.41;44.99;99792.41;3525713;40;20051;-72
2021/05/17 04:42:20;;;;;;;1.92;0.90;;;;;;;12.43;44.71;99790.34;3530187;40;20050;-72
2021/05/17 04:44:48;;;;;;;1.65;0.90;;;;;;;12.43;44.86;99787.59;3535221;40;20443;-72
2021/05/17 04:47:17;;;;;;;2.10;0.73;;;;;;;12.45;45.01;99795.66;3517300;40;20144;-72
2021/05/17 04:49:45;;;;;;;2.17;1.00;;;;;;;12.44;45.03;99791.19;3536806;40;20149;-72
2021/05/17 04:52:13;;;;;;;0.93;0.60;;;;;;;12.45;45.13;99795.66;3524401;40;20053;-71
2021/05/17 04:54:41;;;;;;;1.83;0.88;;;;;;;12.46;45.18;99791.03;3527709;40;20087;-72
2021/05/17 04:57:09;;;;;;;2.13;0.90;;;;;;;12.48;45.06;99788.97;3540336;40;20051;-72
2021/05/17 04:59:57;;;;;;;2.03;0.90;;;;;;;12.49;45.28;99793.44;3536646;40;20043;-72
2021/05/17 05:02:25;;;;;;;1.17;0.85;;;;;;;12.51;45.13;99802.38;3527513;40;20055;-72
2021/05/17 05:04:53;;;;;;;1.73;0.95;;;;;;;12.52;45.19;99796.69;3535758;40;20359;-72
2021/05/17 05:07:21;;;;;;;2.42;0.80;;;;;;;12.54;45.11;99791.03;3538093;40;20046;-72
2021/05/17 05:09:49;;;;;;;1.33;0.80;;;;;;;12.54;45.32;99796.53;3536654;40;20095;-73
2021/05/17 05:12:17;;;;;;;1.55;0.90;;;;;;;12.55;45.31;99804.59;3538001;40;20089;-73
2021/05/17 05:14:44;;;;;;;1.75;0.88;;;;;;;12.57;45.34;99801.69;3537943;40;20055;-71
2021/05/17 05:17:13;;;;;;;2.60;0.95;;;;;;;12.59;45.06;99805.13;3535749;40;20067;-71
2021/05/17 05:19:41;;;;;;;1.40;0.80;;;;;;;12.58;44.89;99797.91;3537609;40;20404;-72
2021/05/17 05:22:09;;;;;;;1.77;0.90;;;;;;;12.59;45.08;99802.38;3537575;40;20060;-72
2021/05/17 05:24:36;;;;;;;1.90;0.90;;;;;;;12.60;45.13;99807.66;3535040;40;20428;-72
2021/05/17 05:27:11;;;;;;;1.73;0.88;;;;;;;12.60;44.81;99807.66;3535979;40;20345;-72
2021/05/17 05:29:51;;;;;;;2.10;0.90;;;;;;;12.59;45.06;99808.72;3535563;40;20051;-71
2021/05/17 05:32:29;;;;;;;1.48;1.05;;;;;;;12.61;45.05;99811.25;3535206;40;20051;-71
2021/05/17 05:34:57;;;;;;;1.90;1.15;;;;;;;12.59;45.10;99805.13;3536907;40;20098;-73
2021/05/17 05:37:25;;;;;;;1.80;0.90;;;;;;;12.60;45.35;99807.66;3538113;40;21124;-72
2021/05/17 05:39:52;;;;;;;2.78;1.55;;;;;;;12.61;44.74;99803.03;3526307;40;20083;-72
2021/05/17 05:42:20;;;;;;;2.50;1.00;;;;;;;12.61;45.08;99800.28;3534746;40;20074;-72
2021/05/17 05:44:48;;;;;;;2.65;1.48;;;;;;;12.62;44.73;99805.59;3535011;40;20056;-73
2021/05/17 05:47:20;;;;;;;2.00;1.00;;;;;;;12.64;45.17;99797.22;3527483;40;20564;-73
2021/05/17 05:49:49;;;;;;;2.20;0.85;;;;;;;12.66;45.15;99800.66;3536853;40;20051;-72
2021/05/17 05:52:18;;;;;;;1.25;0.80;;;;;;;12.68;45.00;99801.31;3537253;40;20074;-73
2021/05/17 05:54:46;;;;;;;1.75;1.10;;;;;;;12.68;44.93;99806.81;3528481;40;20501;-71
2021/05/17 05:57:15;;;;;;;1.27;0.70;;;;;;;12.70;44.98;99808.34;3526644;40;20072;-71
2021/05/17 05:59:43;;;;;;;1.88;1.00;;;;;;;12.73;45.08;99812.66;3532155;40;20050;-75
2021/05/17 06:02:11;;;;;;;2.15;0.90;;;;;;;12.75;45.36;99808.72;3536789;40;20062;-73
2021/05/17 06:04:39;;;;;;;1.92;1.08;;;;;;;12.79;45.05;99810.06;3527859;40;20396;-73
2021/05/17 06:07:07;;;;;;;2.08;1.00;;;;;;;12.81;45.19;99809.91;3536973;40;20079;-70
2021/05/17 06:09:35;;;;;;;2.90;0.90;;;;;;;12.84;44.83;99816.94;3535770;40;20088;-70
2021/05/17 06:12:03;;;;;;;2.42;1.00;;;;;;;12.87;45.20;99822.06;3531765;40;20293;-70
2021/05/17 06:14:32;;;;;;;2.15;1.00;;;;;;;12.89;45.22;99822.75;3527612;40;20180;-70
2021/05/17 06:17:00;;;;;;;1.83;0.80;;;;;;;12.90;45.01;99819.84;3537990;40;20066;-70
2021/05/17 06:19:31;;;;;;;1.33;0.80;;;;;;;12.92;44.76;99828.81;3537622;40;20066;-70
2021/05/17 06:22:01;;;;;;;1.38;0.80;;;;;;;12.95;45.10;99824.84;3537805;40;20088;-70
2021/05/17 06:24:30;;;;;;;1.77;0.88;;;;;;;12.95;44.74;99830.34;3536328;40;20506;-70
2021/05/17 06:26:58;;;;;;;2.00;0.85;;;;;;;12.97;44.53;99829.13;3535184;40;20062;-70
2021/05/17 06:29:27;;;;;;;2.22;1.08;;;;;;;12.99;44.85;99831.72;3534721;40;20066;-71
2021/05/17 06:31:56;;;;;;;1.80;1.02;;;;;;;13.00;44.68;99831.56;3526573;40;20054;-71
2021/05/17 06:34:25;;;;;;;2.20;0.95;;;;;;;13.02;44.67;99823.97;3532239;40;20058;-70
2021/05/17 06:36:54;;;;;;;2.63;1.00;;;;;;;13.04;44.75;99826.56;3536434;40;20042;-70
2021/05/17 06:39:22;;;;;;;2.08;0.80;;;;;;;13.07;44.62;99826.22;3532282;40;20035;-71
2021/05/17 06:41:50;;;;;;;1.58;0.80;;;;;;;13.09;44.68;99833.22;3524976;40;20118;-71
2021/05/17 06:44:18;;;;;;;2.58;0.80;;;;;;;13.11;44.55;99831.16;3531384;40;20132;-71
2021/05/17 06:46:47;;;;;;;2.10;0.90;;;;;;;13.13;44.55;99840.09;3534638;40;20431;-71
2021/05/17 06:49:16;;;;;;;2.22;1.02;;;;;;;13.16;44.54;99839.75;3536101;40;20055;-72
2021/05/17 06:51:44;;;;;;;1.83;1.00;;;;;;;13.20;45.11;99833.91;3521119;40;20436;-71
2021/05/17 06:54:15;;;;;;;2.35;1.10;;;;;;;13.24;44.73;99835.28;3532376;40;20067;-71
2021/05/17 06:56:49;;;;;;;1.08;0.68;;;;;;;13.27;44.96;99841.28;3530949;40;20051;-72
2021/05/17 06:59:19;;;;;;;3.38;0.85;;;;;;;13.31;45.03;99839.03;3531010;40;20095;-72
2021/05/17 07:01:47;;;;;;;1.92;0.70;;;;;;;13.36;44.69;99842.09;3521352;40;20062;-73
2021/05/17 07:04:16;;;;;;;1.58;0.88;;;;;;;13.39;44.47;99841.78;3530442;40;20059;-73
2021/05/17 07:06:52;;;;;;;2.35;1.10;;;;;;;13.42;44.49;99847.75;3530678;40;20078;-73
2021/05/17 07:12:10;;;;;;;3.15;1.20;;;;;;;13.48;44.33;99858.06;3535797;40;20051;-70
2021/05/17 07:14:38;;;;;;;2.83;1.08;;;;;;;13.49;44.28;99856.19;3532941;40;20066;-71
2021/05/17 07:17:07;;;;;;;1.60;0.82;;;;;;;13.49;44.02;99856.19;3532939;40;20065;-71
2021/05/17 07:19:35;;;;;;;1.77;0.90;;;;;;;13.51;44.05;99862.31;3531526;40;20055;-71
2021/05/17 07:24:49;;;;;;;2.47;1.00;;;;;;;13.53;43.78;99860.28;3532689;40;20066;-72
2021/05/17 07:27:18;;;;;;;1.55;0.80;;;;;;;13.52;43.45;99870.41;3518298;40;20067;-73
2021/05/17 07:29:46;;;;;;;2.75;1.00;;;;;;;13.52;43.51;99867.66;3531141;40;20058;-71
2021/05/17 07:32:14;;;;;;;2.65;1.00;;;;;;;13.54;43.28;99868.34;3531438;40;20324;-71
2021/05/17 07:34:42;;;;;;;2.20;0.90;;;;;;;13.54;43.57;99867.47;3529441;40;20055;-73
2021/05/17 07:37:10;;;;;;;1.77;0.77;;;;;;;13.57;43.09;99867.16;3531239;40;20043;-74
2021/05/17 07:39:38;;;;;;;1.98;0.90;;;;;;;13.57;43.20;99864.41;3532007;40;20095;-74
2021/05/17 07:42:06;;;;;;;1.33;0.73;;;;;;;13.58;43.49;99866.13;3522109;40;20319;-75
2021/05/17 07:44:35;;;;;;;3.17;1.02;;;;;;;13.61;43.40;99862.13;3523876;40;20087;-72
2021/05/17 07:47:04;;;;;;;2.85;1.10;;;;;;;13.61;42.70;99863.00;3525613;40;20051;-73
2021/05/17 07:49:36;;;;;;;2.72;0.85;;;;;;;13.63;42.86;99869.19;3536072;40;20058;-73
2021/05/17 07:52:05;;;;;;;1.20;0.70;;;;;;;13.66;42.73;99865.22;3530654;40;20054;-73
2021/05/17 07:54:34;;;;;;;1.77;0.82;;;;;;;13.69;42.96;99862.97;3528943;40;20087;-73
2021/05/17 07:57:04;;;;;;;2.00;0.77;;;;;;;13.72;42.58;99870.00;3522123;40;20051;-73
2021/05/17 07:59:33;;;;;;;1.23;0.75;;;;;;;13.75;42.64;99865.00;3522877;40;20143;-72
2021/05/17 08:02:02;;;;;;;2.45;0.77;;;;;;;13.80;42.55;99854.34;3522528;40;20067;-72
2021/05/17 08:04:29;;;;;;;2.33;0.90;;;;;;;13.84;42.45;99852.94;3517789;40;20039;-72
2021/05/17 08:06:58;;;;;;;1.50;0.70;;;;;;;13.89;42.83;99860.72;3526167;40;20072;-73
2021/05/17 08:09:26;;;;;;;1.90;0.80;;;;;;;13.93;42.93;99851.91;3525870;40;20079;-73
2021/05/17 08:11:54;;;;;;;2.10;0.70;;;;;;;14.01;42.44;99841.91;3525651;40;20075;-71
2021/05/17 08:14:22;;;;;;;2.15;0.70;;;;;;;14.04;41.87;99858.91;3525399;40;20141;-72
2021/05/17 08:16:50;;;;;;;1.48;0.70;;;;;;;14.08;41.76;99845.66;3515714;40;20066;-72
2021/05/17 08:19:18;;;;;;;1.60;0.98;;;;;;;14.12;41.46;99852.50;3523838;40;20083;-72
2021/05/17 08:21:46;;;;;;;1.65;0.80;;;;;;;14.10;41.56;99851.84;3516957;40;20055;-73
2021/05/17 08:24:13;;;;;;;1.15;0.60;;;;;;;14.11;41.77;99861.78;3524547;40;20380;-74
2021/05/17 08:26:41;;;;;;;1.58;0.60;;;;;;;14.11;41.27;99859.03;3525200;40;20083;-73
2021/05/17 08:29:09;;;;;;;1.42;0.70;;;;;;;14.13;41.71;99856.97;3534296;40;20136;-73
2021/05/17 08:31:37;;;;;;;2.65;0.88;;;;;;;14.12;41.47;99852.50;3527486;40;20055;-73
2021/05/17 08:34:05;;;;;;;1.63;0.70;;;;;;;14.12;41.45;99863.50;3540839;40;20051;-73
2021/05/17 08:36:34;;;;;;;1.90;0.80;;;;;;;14.13;41.13;99865.22;3522992;40;20050;-73
2021/05/17 08:39:03;;;;;;;3.17;1.10;;;;;;;14.13;40.90;99866.09;3536971;40;20062;-72
2021/05/17 08:41:32;;;;;;;2.40;0.85;;;;;;;14.13;41.42;99862.47;3535274;40;20137;-73
2021/05/17 08:44:01;;;;;;;2.45;0.82;;;;;;;14.13;41.17;99856.97;3532960;40;20388;-72
2021/05/17 08:46:30;;;;;;;2.90;0.80;;;;;;;14.14;41.33;99864.19;3528382;40;20067;-73
2021/05/17 08:48:59;;;;;;;1.45;0.60;;;;;;;14.15;41.39;99861.28;3527948;40;20062;-73
2021/05/17 08:51:29;;;;;;;1.15;0.60;;;;;;;14.18;41.00;99871.03;3537136;40;20066;-74
2021/05/17 08:54:01;;;;;;;1.25;0.65;;;;;;;14.21;40.82;99865.19;3528897;40;20077;-75
2021/05/17 08:56:34;;;;;;;2.27;1.30;;;;;;;14.21;40.64;99865.19;3536214;40;20032;-73
2021/05/17 08:59:08;;;;;;;1.30;0.88;;;;;;;14.23;41.08;99863.13;3528587;40;20512;-74
2021/05/17 09:01:35;;;;;;;1.92;0.73;;;;;;;14.24;41.15;99868.41;3536381;40;20404;-72
2021/05/17 09:04:05;;;;;;;0.98;0.65;;;;;;;14.27;41.37;99876.31;3536413;40;20057;-72
2021/05/17 09:06:38;;;;;;;1.80;0.85;;;;;;;14.32;40.89;99869.44;3532960;40;20139;-74
2021/05/17 09:09:07;;;;;;;;;;;;;;;14.05;41.46;99876.28;3535159;40;20055;-72
2021/05/17 09:11:35;;;;;;;1.00;0.60;;;;;;;14.29;41.38;99867.91;3535770;40;19938;-73
2021/05/17 09:14:11;;;;;;;1.67;0.90;;;;;;;14.37;41.09;99876.09;3529563;40;20090;-72
2021/05/17 09:16:48;;;;;;;1.60;0.60;;;;;;;14.39;40.62;99867.66;3536444;40;20156;-72
2021/05/17 09:19:18;;;;;;;1.85;0.60;;;;;;;14.40;41.00;99870.25;3537891;40;20054;-74
2021/05/17 09:22:05;;;;;;;0.95;0.57;;;;;;;14.47;40.52;99876.72;3527809;40;20028;-72
2021/05/17 09:24:46;;;;;;;1.33;0.57;;;;;;;14.49;41.02;99880.13;3534893;40;20051;-74
2021/05/17 09:27:19;;;;;;;0.82;0.63;;;;;;;14.53;40.38;99876.00;3532675;40;20039;-79
2021/05/17 09:29:49;;;;;;;1.60;0.60;;;;;;;14.57;40.67;99871.81;3528086;40;20392;-73
2021/05/17 09:32:20;;;;;;;1.20;0.65;;;;;;;14.62;40.56;99871.31;3538230;40;20083;-73
2021/05/17 09:34:58;;;;;;;2.08;0.60;;;;;;;14.67;40.37;99866.09;3532356;40;20497;-72
2021/05/17 09:37:41;;;;;;;0.98;0.57;;;;;;;14.71;40.34;99867.44;3536758;40;20050;-73
2021/05/17 09:40:18;;;;;;;1.42;0.50;;;;;;;14.82;40.30;99863.47;3536013;40;20063;-72
2021/05/17 09:42:58;;;;;;;1.13;0.50;;;;;;;14.90;39.68;99858.72;3535123;40;20099;-73
2021/05/17 09:45:43;;;;;;;1.00;0.50;;;;;;;14.92;40.27;99866.78;3530072;40;20058;-73
2021/05/17 09:48:13;;;;;;;0.90;0.57;;;;;;;14.95;40.10;99863.69;3537967;40;20186;-72
2021/05/17 09:51:00;;;;;;;1.27;0.50;;;;;;;15.01;39.80;99862.94;3537608;40;20086;-74
2021/05/17 09:53:30;;;;;;;3.15;0.80;;;;;;;15.00;39.55;99861.22;3544207;40;20081;-73
2021/05/17 09:56:07;;;;;;;1.80;0.68;;;;;;;15.03;39.42;99863.59;3538115;40;20057;-74
2021/05/17 09:58:37;;;;;;;2.13;0.80;;;;;;;15.08;40.35;99861.13;3529401;40;20528;-74
2021/05/17 10:01:13;;;;;;;2.78;0.70;;;;;;;15.15;40.55;99855.78;3526970;40;20101;-73
2021/05/17 10:03:43;;;;;;;1.25;0.65;;;;;;;15.21;39.90;99855.00;3529026;40;20390;-73
2021/05/17 10:06:13;;;;;;;3.28;1.02;;;;;;;15.27;39.70;99843.25;3536523;40;20031;-76
2021/05/17 10:08:41;;;;;;;1.83;0.70;;;;;;;15.33;39.88;99839.72;3536418;40;20619;-73
2021/05/17 10:11:10;;;;;;;2.00;0.73;;;;;;;15.39;39.22;99839.81;3525975;40;20053;-73
2021/05/17 10:13:38;;;;;;;2.78;0.80;;;;;;;15.46;39.56;99839.94;3523084;40;20054;-73
2021/05/17 10:16:08;;;;;;;1.20;0.70;;;;;;;15.52;39.42;99846.59;3536509;40;20144;-73
2021/05/17 10:18:38;;;;;;;2.70;0.90;;;;;;;15.57;39.45;99846.88;3527065;40;20661;-73
2021/05/17 10:21:10;;;;;;;2.28;1.00;;;;;;;15.58;39.20;99879.75;3535862;40;20423;-73
2021/05/17 10:23:41;;;;;;;2.60;0.80;;;;;;;15.55;39.19;99884.81;3533670;40;20508;-72
2021/05/17 10:26:13;;;;;;;1.42;0.55;;;;;;;15.56;39.50;99883.78;3536692;40;20055;-72
2021/05/17 10:28:47;;;;;;;0.80;0.50;;;;;;;15.49;39.36;99878.13;3536558;40;20058;-76
2021/05/17 10:31:17;;;;;;;1.90;0.60;;;;;;;15.47;39.58;99879.38;3525983;40;20059;-72
2021/05/17 10:33:57;;;;;;;1.02;0.40;;;;;;;15.43;40.00;99876.13;3535844;40;20061;-72
2021/05/17 10:36:46;;;;;;;0.98;0.50;;;;;;;15.37;40.06;99872.25;3535102;40;20032;-72
2021/05/17 10:39:15;;;;;;;1.35;0.40;;;;;;;15.32;39.95;99863.66;3530882;40;20084;-72
2021/05/17 10:48:20;;;;;;;1.63;0.60;;;;;;;15.23;42.04;99862.03;3528302;40;20525;-75
2021/05/17 10:50:50;;;;;;;1.13;0.60;;;;;;;15.25;41.72;99862.69;3528862;40;20502;-72
2021/05/17 10:53:52;;;;;;;0.85;0.50;;;;;;;15.29;42.13;99857.69;3527461;40;20058;-72
2021/05/17 10:56:44;;;;;;;4.28;0.75;;;;;;;15.31;41.39;99858.38;3536752;40;20054;-73
2021/05/17 11:02:00;;;;;;;0.70;0.70;;;;;;;15.39;40.89;99861.88;3539672;40;20054;-73
2021/05/17 11:04:32;;;;;;;0.63;0.50;;;;;;;15.41;40.45;99870.81;3536254;40;20039;-73
2021/05/17 11:07:19;;;;;;;0.85;0.60;;;;;;;15.40;40.80;99869.09;3526484;40;20054;-71
2021/05/17 11:10:00;;;;;;;1.45;0.50;;;;;;;15.40;40.17;99865.47;3536256;40;20070;-72
2021/05/17 11:13:01;;;;;;;1.08;0.60;;;;;;;15.38;40.54;99862.06;3536467;40;20062;-74
2021/05/17 11:15:46;;;;;;;1.17;0.50;;;;;;;15.39;40.77;99872.06;3526471;40;20201;-73
2021/05/17 11:18:45;;;;;;;1.30;0.60;;;;;;;15.37;40.44;99868.63;3528070;40;20069;-74
2021/05/17 11:21:27;;;;;;;0.93;0.50;;;;;;;15.46;40.03;99866.66;3535070;40;20501;-74
2021/05/17 11:24:05;;;;;;;0.60;0.50;;;;;;;15.47;40.28;99882.16;3537885;40;20153;-74
2021/05/17 11:26:52;;;;;;;1.13;0.70;;;;;;;15.48;40.13;99876.41;3528586;40;20046;-74
2021/05/17 11:29:34;;;;;;;0.60;0.55;;;;;;;15.49;40.28;99888.31;3527675;40;20420;-73
2021/05/17 11:32:35;;;;;;;0.38;0.32;;;;;;;15.51;40.60;99886.22;3526525;40;20039;-73
2021/05/17 11:35:10;;;;;;;0.50;0.47;;;;;;;15.52;40.12;99879.66;3536311;40;20054;-75
2021/05/17 11:38:11;;;;;;;0.40;0.25;;;;;;;15.54;39.91;99878.44;3537418;40;20118;-74
2021/05/17 11:40:49;;;;;;;1.00;0.50;;;;;;;15.57;39.86;99891.84;3525857;40;20078;-73
2021/05/17 11:43:21;;;;;;;1.13;0.50;;;;;;;15.55;39.69;99898.59;3532232;40;20070;-72
2021/05/17 11:45:53;;;;;;;1.33;0.50;;;;;;;15.55;40.44;99898.59;3527810;40;20051;-72
2021/05/17 11:48:27;;;;;;;0.45;0.40;;;;;;;15.51;40.41;99905.50;3519681;40;20070;-72
2021/05/17 11:50:56;;;;;;;0.60;0.50;;;;;;;15.40;40.14;99902.16;3535634;40;20145;-72
2021/05/17 11:53:24;;;;;;;0.95;0.40;;;;;;;15.35;40.45;99906.53;3528196;40;20101;-71
2021/05/17 11:55:53;;;;;;;2.55;0.60;;;;;;;15.29;40.62;99899.88;3531830;40;20099;-71
2021/05/17 11:58:24;;;;;;;1.05;0.55;;;;;;;15.24;40.88;99907.81;3531336;40;20046;-71
2021/05/17 12:01:16;;;;;;;0.82;0.55;;;;;;;15.18;41.44;99900.31;3534625;40;20060;-72
2021/05/17 12:03:45;;;;;;;1.27;0.60;;;;;;;15.10;41.28;99903.13;3535970;40;20058;-72
2021/05/17 12:06:13;;;;;;;1.00;0.55;;;;;;;15.02;41.26;99898.56;3536303;40;20137;-72
2021/05/17 12:08:41;;;;;;;2.05;0.90;;;;;;;14.98;41.28;99899.94;3537725;40;20043;-72
2021/05/17 12:11:12;;;;;;;1.52;0.88;;;;;;;14.96;42.07;99896.56;3535243;40;20192;-73
2021/05/17 12:13:46;;;;;;;1.83;0.90;;;;;;;14.93;42.28;99899.66;3539397;40;20057;-73
2021/05/17 12:16:24;;;;;;;2.35;1.17;;;;;;;14.90;42.34;99890.94;3535574;40;20058;-72